Time;durP1;ratioP1;P1;durP2;ratioP2;P2;SDS_P1;SDS_P2;PMS_P1;PMS_P2;Temp;Humidity;BMP_temperature;BMP_pressure;BME280_temperature;BME280_humidity;BME280_pressure;Samples;Min_cycle;Max_cycle;Signal;HPM_P1;HPM_P2
2022/12/16 00:00:00;;;;;;;4.80;1.20;;;;;;;10.28;100.00;95499.34;5112838;28;20435;-54
2022/12/16 00:02:28;;;;;;;1.13;1.13;;;;;;;9.29;100.00;95327.59;5113229;28;20486;-54
2022/12/16 00:04:57;;;;;;;0.60;0.50;;;;;;;10.38;100.00;95494.06;5112616;28;20816;-54
2022/12/16 00:07:25;;;;;;;4.23;1.17;;;;;;;10.27;100.00;95502.28;5113037;28;20446;-55
2022/12/16 00:09:54;;;;;;;0.80;0.77;;;;;;;9.96;100.00;95473.06;5113194;28;20462;-54
2022/12/16 00:12:22;;;;;;;1.73;1.63;;;;;;;9.78;100.00;95467.44;5112903;28;20454;-55
2022/12/16 00:14:50;;;;;;;2.00;1.90;;;;;;;10.10;100.00;95508.56;5112544;28;20439;-54
2022/12/16 00:17:20;;;;;;;1.73;1.27;;;;;;;10.06;100.00;95496.91;5112821;28;20786;-54
2022/12/16 00:19:48;;;;;;;2.70;2.50;;;;;;;10.17;100.00;95476.56;5112881;28;20431;-54
2022/12/16 00:22:20;;;;;;;0.93;0.73;;;;;;;10.07;100.00;95481.78;5112838;28;20423;-55
2022/12/16 00:24:48;;;;;;;0.93;0.93;;;;;;;10.24;100.00;95514.19;5112669;28;20469;-54
2022/12/16 00:27:17;;;;;;;1.13;1.13;;;;;;;9.51;100.00;95423.41;5112412;28;20446;-54
2022/12/16 00:29:45;;;;;;;9.63;0.63;;;;;;;9.52;100.00;95411.78;5112890;28;20432;-54
2022/12/16 00:32:14;;;;;;;2.87;2.77;;;;;;;9.73;100.00;95480.66;5112102;28;20416;-54
2022/12/16 00:34:43;;;;;;;5.10;1.03;;;;;;;9.96;100.00;95522.56;5112195;28;20439;-54
2022/12/16 00:37:13;;;;;;;0.57;0.57;;;;;;;9.61;100.00;95488.81;5112204;28;20435;-54
2022/12/16 00:39:41;;;;;;;1.30;1.27;;;;;;;9.15;100.00;95452.63;5112482;28;20431;-54
2022/12/16 00:42:09;;;;;;;2.80;2.70;;;;;;;9.23;100.00;95479.38;5112479;28;20465;-54
2022/12/16 00:44:37;;;;;;;4.50;1.90;;;;;;;9.41;100.00;95504.59;5111814;28;20993;-55
2022/12/16 00:47:06;;;;;;;2.93;2.73;;;;;;;9.92;100.00;95526.75;5112083;28;20511;-54
2022/12/16 00:49:34;;;;;;;0.83;0.83;;;;;;;9.83;100.00;95523.84;5111891;28;20488;-54
2022/12/16 00:52:04;;;;;;;6.57;1.57;;;;;;;9.73;100.00;95533.59;5111004;28;20435;-55
2022/12/16 00:54:33;;;;;;;0.90;0.73;;;;;;;9.62;100.00;95519.50;5111851;28;20439;-54
2022/12/16 00:57:01;;;;;;;3.53;2.10;;;;;;;9.75;100.00;95532.28;5112045;28;20426;-54
2022/12/16 00:59:29;;;;;;;1.27;1.27;;;;;;;8.71;100.00;95336.59;5111908;28;20518;-55
2022/12/16 01:01:57;;;;;;;1.90;1.80;;;;;;;9.47;100.00;95448.00;5111991;28;20499;-55
2022/12/16 01:04:27;;;;;;;0.87;0.87;;;;;;;9.94;100.00;95517.50;5111821;28;20811;-55
2022/12/16 01:06:55;;;;;;;1.43;1.33;;;;;;;8.97;100.00;95355.22;5112507;28;20415;-55
2022/12/16 01:09:25;;;;;;;1.57;1.47;;;;;;;9.98;100.00;95515.94;5111919;28;20939;-55
2022/12/16 01:11:54;;;;;;;0.80;0.80;;;;;;;10.07;100.00;95501.13;5112065;28;20510;-54
2022/12/16 01:14:22;;;;;;;0.50;0.40;;;;;;;10.11;100.00;95486.31;5112002;28;20473;-54
2022/12/16 01:16:50;;;;;;;2.13;0.30;;;;;;;10.10;100.00;95513.06;5112391;28;20730;-55
2022/12/16 01:19:22;;;;;;;3.23;0.80;;;;;;;9.96;100.00;95477.56;5112496;28;20434;-55
2022/12/16 01:21:50;;;;;;;0.87;0.87;;;;;;;10.16;100.00;95486.38;5111709;28;20429;-55
2022/12/16 01:24:22;;;;;;;1.47;0.90;;;;;;;10.36;100.00;95509.44;5111595;28;20469;-54
2022/12/16 01:26:51;;;;;;;1.27;1.27;;;;;;;10.11;100.00;95480.22;5111646;28;20423;-54
2022/12/16 01:29:20;;;;;;;1.03;0.93;;;;;;;10.06;100.00;95482.88;5111790;28;20465;-54
2022/12/16 01:31:48;;;;;;;0.80;0.80;;;;;;;9.75;100.00;95429.03;5112051;28;20426;-54
2022/12/16 01:34:17;;;;;;;0.70;0.70;;;;;;;9.54;100.00;95411.50;5111356;28;20946;-54
2022/12/16 01:36:45;;;;;;;1.93;1.57;;;;;;;9.54;100.00;95445.91;5111721;28;20900;-55
2022/12/16 01:39:13;;;;;;;0.50;0.50;;;;;;;9.89;100.00;95479.66;5111477;28;20515;-54
2022/12/16 01:41:41;;;;;;;0.63;0.63;;;;;;;10.00;100.00;95524.41;5111364;28;20506;-54
2022/12/16 01:44:16;;;;;;;4.83;0.83;;;;;;;9.91;100.00;95501.38;5111950;28;20950;-54
2022/12/16 01:46:49;;;;;;;0.70;0.70;;;;;;;10.01;100.00;95514.63;5111154;28;20426;-54
2022/12/16 01:49:24;;;;;;;1.90;0.73;;;;;;;9.49;100.00;95443.22;5111510;28;20532;-55
2022/12/16 01:51:56;;;;;;;0.97;0.97;;;;;;;9.90;100.00;95502.41;5111767;28;20441;-55
2022/12/16 01:54:29;;;;;;;0.70;0.70;;;;;;;9.63;100.00;95467.38;5111692;28;20438;-55
2022/12/16 01:57:03;;;;;;;0.50;0.50;;;;;;;9.59;100.00;95475.03;5112013;28;20427;-55
2022/12/16 01:59:35;;;;;;;4.57;1.63;;;;;;;9.84;100.00;95487.56;5110763;28;20445;-55
2022/12/16 02:02:04;;;;;;;0.63;0.63;;;;;;;9.90;100.00;95460.84;5111610;28;20787;-55
2022/12/16 02:04:33;;;;;;;1.47;1.37;;;;;;;9.56;100.00;95422.66;5111591;28;20987;-55
2022/12/16 02:07:02;;;;;;;3.40;0.73;;;;;;;9.21;100.00;95398.72;5111939;28;20450;-55
2022/12/16 02:09:30;;;;;;;1.83;1.73;;;;;;;8.43;100.00;95276.22;5111616;28;20517;-55
2022/12/16 02:12:19;;;;;;;3.07;2.87;;;;;;;9.70;100.00;95486.44;5111690;28;20432;-55
2022/12/16 02:15:07;;;;;;;1.17;1.17;;;;;;;9.61;100.00;95467.66;5115238;28;20446;-55
2022/12/16 02:17:41;;;;;;;0.93;0.93;;;;;;;9.79;100.00;95469.81;5114961;28;20530;-55
2022/12/16 02:20:31;;;;;;;0.40;0.40;;;;;;;9.31;100.00;95369.66;5114892;28;20434;-55
2022/12/16 02:23:22;;;;;;;2.50;2.30;;;;;;;9.70;100.00;95452.06;5114461;28;20435;-55
2022/12/16 02:26:11;;;;;;;7.57;1.53;;;;;;;9.08;100.00;95333.06;5114348;28;20480;-55
2022/12/16 02:29:01;;;;;;;0.53;0.53;;;;;;;10.23;100.00;95490.59;5114911;28;20419;-55
2022/12/16 02:31:38;;;;;;;1.27;0.70;;;;;;;9.50;100.00;95394.56;5114843;28;20445;-55
2022/12/16 02:34:13;;;;;;;4.03;0.60;;;;;;;9.83;100.00;95427.75;5114675;28;20790;-55
2022/12/16 02:36:55;;;;;;;2.00;0.90;;;;;;;9.19;100.00;95322.25;5114738;28;20484;-55
2022/12/16 02:39:30;;;;;;;4.00;0.60;;;;;;;9.97;100.00;95457.94;5113810;28;20937;-55
2022/12/16 02:42:07;;;;;;;0.73;0.73;;;;;;;10.06;100.00;95462.50;5114424;28;20516;-55
2022/12/16 02:44:44;;;;;;;4.93;1.23;;;;;;;9.42;100.00;95410.94;5114396;28;20526;-55
2022/12/16 02:47:14;;;;;;;0.70;0.70;;;;;;;10.09;100.00;95500.88;5114283;28;20438;-55
2022/12/16 02:49:47;;;;;;;1.43;1.30;;;;;;;10.05;100.00;95470.69;5114164;28;20505;-55
2022/12/16 02:52:17;;;;;;;1.33;1.33;;;;;;;9.47;100.00;95453.28;5114395;28;20435;-55
2022/12/16 02:54:46;;;;;;;3.00;2.87;;;;;;;9.50;100.00;95469.44;5114485;28;20445;-55
2022/12/16 02:57:42;;;;;;;0.40;0.40;;;;;;;9.40;100.00;95442.97;5114267;28;20918;-55
2022/12/16 03:00:14;;;;;;;1.37;1.00;;;;;;;9.95;100.00;95502.41;5114477;28;20521;-55
2022/12/16 03:02:54;;;;;;;0.40;0.40;;;;;;;9.83;100.00;95473.53;5114099;28;20434;-55
2022/12/16 03:05:27;;;;;;;12.57;1.80;;;;;;;10.12;100.00;95506.47;5114007;28;20970;-55
2022/12/16 03:07:58;;;;;;;1.33;1.33;;;;;;;9.78;100.00;95462.13;5114349;28;20931;-54
2022/12/16 03:10:30;;;;;;;0.60;0.40;;;;;;;9.98;100.00;95484.19;5113787;28;20430;-55
2022/12/16 03:13:01;;;;;;;2.60;0.87;;;;;;;10.11;100.00;95488.19;5113980;28;20421;-54
2022/12/16 03:15:33;;;;;;;3.63;1.20;;;;;;;9.93;100.00;95483.34;5114318;28;20427;-54
2022/12/16 03:18:07;;;;;;;0.97;0.97;;;;;;;9.78;100.00;95454.19;5113274;28;20431;-54
2022/12/16 03:20:42;;;;;;;1.27;1.27;;;;;;;10.07;100.00;95471.19;5113623;28;20442;-55
2022/12/16 03:23:14;;;;;;;0.67;0.67;;;;;;;10.11;100.00;95491.63;5113725;28;20866;-54
2022/12/16 03:25:45;;;;;;;0.83;0.70;;;;;;;9.84;100.00;95451.28;5113149;28;20553;-55
2022/12/16 03:28:31;;;;;;;0.63;0.63;;;;;;;9.95;100.00;95490.00;5112812;28;20529;-55
2022/12/16 03:31:06;;;;;;;3.63;1.60;;;;;;;9.90;100.00;95513.00;5113798;28;20880;-55
2022/12/16 03:33:42;;;;;;;1.10;1.10;;;;;;;9.94;100.00;95512.22;5113644;28;20578;-55
2022/12/16 03:36:14;;;;;;;0.37;0.33;;;;;;;10.10;100.00;95503.25;5113027;28;20431;-55
2022/12/16 03:38:44;;;;;;;0.43;0.40;;;;;;;10.07;100.00;95498.47;5112483;28;20438;-55
2022/12/16 03:41:14;;;;;;;0.47;0.47;;;;;;;10.10;100.00;95494.53;5113040;28;20517;-55
2022/12/16 03:43:43;;;;;;;0.70;0.67;;;;;;;10.28;100.00;95503.84;5113381;28;20454;-55
2022/12/16 03:46:12;;;;;;;0.47;0.30;;;;;;;9.60;100.00;95450.16;5113081;28;20558;-55
2022/12/16 03:48:47;;;;;;;0.97;0.97;;;;;;;10.02;100.00;95506.41;5112836;28;20603;-55
2022/12/16 03:51:15;;;;;;;0.93;0.90;;;;;;;9.94;100.00;95472.50;5113429;28;20935;-55
2022/12/16 03:53:44;;;;;;;4.77;3.13;;;;;;;9.83;100.00;95502.66;5113132;28;20546;-56
2022/12/16 03:56:13;;;;;;;1.83;0.83;;;;;;;9.81;100.00;95494.19;5113074;28;20430;-55
2022/12/16 03:58:41;;;;;;;1.50;0.80;;;;;;;9.79;100.00;95482.28;5113050;28;20431;-55
2022/12/16 04:01:10;;;;;;;1.17;0.40;;;;;;;10.13;100.00;95515.22;5112459;28;20424;-56
2022/12/16 04:03:39;;;;;;;1.70;1.70;;;;;;;9.90;100.00;95454.75;5112678;28;20431;-55
2022/12/16 04:06:09;;;;;;;3.40;1.27;;;;;;;10.03;100.00;95500.06;5112983;28;20475;-55
2022/12/16 04:08:37;;;;;;;0.97;0.97;;;;;;;10.07;100.00;95498.47;5112740;28;20470;-55
2022/12/16 04:25:08;;;;;;;1.43;1.33;;;;;;;9.46;100.00;95518.63;5112533;28;20798;-55
2022/12/16 04:27:36;;;;;;;1.73;1.63;;;;;;;8.52;100.00;95363.72;5112067;28;20483;-56
2022/12/16 04:30:21;;;;;;;3.47;3.17;;;;;;;9.26;100.00;95523.81;5112185;28;20782;-54
